sensor_id;sensor_type;location;lat;lon;timestamp;P1;durP1;ratioP1;P2;durP2;ratioP2
23555;SDS011;11956;53.184;8.578;2023-02-18T00:01:24;17.75;;;2.80;;
23555;SDS011;11956;53.184;8.578;2023-02-18T00:04:26;18.10;;;3.13;;
23555;SDS011;11956;53.184;8.578;2023-02-18T00:07:27;19.27;;;3.15;;
23555;SDS011;11956;53.184;8.578;2023-02-18T00:10:28;17.33;;;2.78;;
23555;SDS011;11956;53.184;8.578;2023-02-18T00:13:29;13.40;;;2.67;;
23555;SDS011;11956;53.184;8.578;2023-02-18T00:16:29;17.67;;;3.03;;
23555;SDS011;11956;53.184;8.578;2023-02-18T00:19:31;19.23;;;2.38;;
23555;SDS011;11956;53.184;8.578;2023-02-18T00:22:31;19.45;;;3.40;;
23555;SDS011;11956;53.184;8.578;2023-02-18T00:25:32;12.43;;;2.35;;
23555;SDS011;11956;53.184;8.578;2023-02-18T00:28:33;16.75;;;2.40;;
23555;SDS011;11956;53.184;8.578;2023-02-18T00:31:35;18.58;;;3.00;;
23555;SDS011;11956;53.184;8.578;2023-02-18T00:34:38;23.15;;;3.00;;
23555;SDS011;11956;53.184;8.578;2023-02-18T00:37:39;15.30;;;2.72;;
23555;SDS011;11956;53.184;8.578;2023-02-18T00:40:40;16.80;;;2.65;;
23555;SDS011;11956;53.184;8.578;2023-02-18T00:43:41;17.08;;;2.63;;
23555;SDS011;11956;53.184;8.578;2023-02-18T00:46:42;20.35;;;2.95;;
23555;SDS011;11956;53.184;8.578;2023-02-18T00:49:47;14.13;;;2.47;;
23555;SDS011;11956;53.184;8.578;2023-02-18T00:52:47;14.32;;;2.53;;
23555;SDS011;11956;53.184;8.578;2023-02-18T00:55:48;19.27;;;2.42;;
23555;SDS011;11956;53.184;8.578;2023-02-18T00:58:50;13.25;;;2.28;;
23555;SDS011;11956;53.184;8.578;2023-02-18T01:01:51;16.00;;;2.45;;
23555;SDS011;11956;53.184;8.578;2023-02-18T01:04:54;14.23;;;2.17;;
23555;SDS011;11956;53.184;8.578;2023-02-18T01:07:55;15.07;;;2.50;;
23555;SDS011;11956;53.184;8.578;2023-02-18T01:10:56;13.82;;;2.28;;
23555;SDS011;11956;53.184;8.578;2023-02-18T01:13:59;15.18;;;2.50;;
23555;SDS011;11956;53.184;8.578;2023-02-18T01:20:03;18.23;;;2.97;;
23555;SDS011;11956;53.184;8.578;2023-02-18T01:23:08;16.42;;;2.60;;
23555;SDS011;11956;53.184;8.578;2023-02-18T01:26:10;17.40;;;2.60;;
23555;SDS011;11956;53.184;8.578;2023-02-18T01:29:11;15.95;;;3.00;;
23555;SDS011;11956;53.184;8.578;2023-02-18T01:32:13;19.65;;;2.38;;
23555;SDS011;11956;53.184;8.578;2023-02-18T01:35:18;19.52;;;2.83;;
23555;SDS011;11956;53.184;8.578;2023-02-18T01:38:20;16.25;;;2.88;;
23555;SDS011;11956;53.184;8.578;2023-02-18T01:41:21;17.95;;;2.70;;
23555;SDS011;11956;53.184;8.578;2023-02-18T01:44:27;13.68;;;2.38;;
23555;SDS011;11956;53.184;8.578;2023-02-18T01:47:29;16.30;;;2.60;;
23555;SDS011;11956;53.184;8.578;2023-02-18T01:50:30;19.95;;;3.10;;
23555;SDS011;11956;53.184;8.578;2023-02-18T01:53:36;15.52;;;2.78;;
23555;SDS011;11956;53.184;8.578;2023-02-18T01:56:54;18.13;;;2.55;;
23555;SDS011;11956;53.184;8.578;2023-02-18T02:00:08;14.80;;;2.65;;
23555;SDS011;11956;53.184;8.578;2023-02-18T02:03:16;15.25;;;2.50;;
23555;SDS011;11956;53.184;8.578;2023-02-18T02:06:18;15.27;;;3.10;;
23555;SDS011;11956;53.184;8.578;2023-02-18T02:09:23;14.05;;;2.50;;
23555;SDS011;11956;53.184;8.578;2023-02-18T02:33:49;18.35;;;2.42;;
23555;SDS011;11956;53.184;8.578;2023-02-18T02:50:38;12.98;;;2.20;;
23555;SDS011;11956;53.184;8.578;2023-02-18T02:54:16;16.30;;;2.08;;
23555;SDS011;11956;53.184;8.578;2023-02-18T03:14:10;16.35;;;2.53;;
23555;SDS011;11956;53.184;8.578;2023-02-18T03:17:44;14.20;;;2.33;;
23555;SDS011;11956;53.184;8.578;2023-02-18T03:20:56;16.83;;;2.20;;
23555;SDS011;11956;53.184;8.578;2023-02-18T03:24:43;16.67;;;2.17;;
23555;SDS011;11956;53.184;8.578;2023-02-18T03:27:56;11.25;;;1.90;;
23555;SDS011;11956;53.184;8.578;2023-02-18T03:31:03;10.23;;;2.05;;
23555;SDS011;11956;53.184;8.578;2023-02-18T03:34:10;9.48;;;2.40;;
23555;SDS011;11956;53.184;8.578;2023-02-18T03:37:16;14.73;;;2.30;;
23555;SDS011;11956;53.184;8.578;2023-02-18T03:40:22;13.65;;;2.30;;
23555;SDS011;11956;53.184;8.578;2023-02-18T03:43:23;12.13;;;1.80;;
23555;SDS011;11956;53.184;8.578;2023-02-18T03:46:24;19.92;;;2.97;;
23555;SDS011;11956;53.184;8.578;2023-02-18T03:49:25;13.27;;;2.75;;
23555;SDS011;11956;53.184;8.578;2023-02-18T03:52:26;12.80;;;2.13;;
23555;SDS011;11956;53.184;8.578;2023-02-18T03:55:28;15.70;;;2.20;;
23555;SDS011;11956;53.184;8.578;2023-02-18T03:58:29;13.90;;;2.10;;
23555;SDS011;11956;53.184;8.578;2023-02-18T04:01:30;16.48;;;2.35;;
23555;SDS011;11956;53.184;8.578;2023-02-18T04:04:31;12.77;;;1.85;;
23555;SDS011;11956;53.184;8.578;2023-02-18T04:07:32;10.70;;;1.65;;
23555;SDS011;11956;53.184;8.578;2023-02-18T04:10:33;12.80;;;2.05;;
23555;SDS011;11956;53.184;8.578;2023-02-18T04:13:34;13.73;;;2.40;;
23555;SDS011;11956;53.184;8.578;2023-02-18T04:16:35;15.45;;;2.10;;
23555;SDS011;11956;53.184;8.578;2023-02-18T04:19:36;13.30;;;2.35;;
23555;SDS011;11956;53.184;8.578;2023-02-18T04:22:37;14.45;;;3.55;;
23555;SDS011;11956;53.184;8.578;2023-02-18T04:25:38;13.07;;;1.90;;
23555;SDS011;11956;53.184;8.578;2023-02-18T04:28:38;12.10;;;2.67;;
23555;SDS011;11956;53.184;8.578;2023-02-18T04:31:39;16.33;;;2.47;;
23555;SDS011;11956;53.184;8.578;2023-02-18T04:34:40;13.48;;;2.38;;
23555;SDS011;11956;53.184;8.578;2023-02-18T04:37:41;12.45;;;2.20;;
23555;SDS011;11956;53.184;8.578;2023-02-18T04:40:42;9.82;;;2.08;;
23555;SDS011;11956;53.184;8.578;2023-02-18T04:43:43;10.18;;;2.10;;
23555;SDS011;11956;53.184;8.578;2023-02-18T04:46:44;13.90;;;2.45;;
23555;SDS011;11956;53.184;8.578;2023-02-18T04:49:44;11.98;;;2.28;;
23555;SDS011;11956;53.184;8.578;2023-02-18T04:52:45;10.68;;;2.33;;
23555;SDS011;11956;53.184;8.578;2023-02-18T04:55:50;15.75;;;2.65;;
23555;SDS011;11956;53.184;8.578;2023-02-18T04:58:52;14.02;;;2.28;;
23555;SDS011;11956;53.184;8.578;2023-02-18T05:01:53;16.02;;;2.60;;
23555;SDS011;11956;53.184;8.578;2023-02-18T05:04:54;14.65;;;2.22;;
23555;SDS011;11956;53.184;8.578;2023-02-18T05:07:55;18.52;;;3.03;;
23555;SDS011;11956;53.184;8.578;2023-02-18T05:10:56;11.80;;;2.15;;
23555;SDS011;11956;53.184;8.578;2023-02-18T05:13:56;13.77;;;2.30;;
23555;SDS011;11956;53.184;8.578;2023-02-18T05:16:57;11.98;;;2.75;;
23555;SDS011;11956;53.184;8.578;2023-02-18T05:19:58;13.55;;;2.70;;
23555;SDS011;11956;53.184;8.578;2023-02-18T05:22:59;9.95;;;2.45;;
23555;SDS011;11956;53.184;8.578;2023-02-18T05:26:00;15.57;;;3.55;;
23555;SDS011;11956;53.184;8.578;2023-02-18T05:29:01;20.27;;;3.67;;
23555;SDS011;11956;53.184;8.578;2023-02-18T05:32:02;16.17;;;3.85;;
23555;SDS011;11956;53.184;8.578;2023-02-18T05:35:03;16.52;;;4.03;;
23555;SDS011;11956;53.184;8.578;2023-02-18T05:38:04;17.98;;;4.55;;
23555;SDS011;11956;53.184;8.578;2023-02-18T05:41:05;16.63;;;4.95;;
23555;SDS011;11956;53.184;8.578;2023-02-18T05:44:06;18.77;;;5.30;;
23555;SDS011;11956;53.184;8.578;2023-02-18T05:47:25;16.73;;;4.70;;
23555;SDS011;11956;53.184;8.578;2023-02-18T05:50:26;17.33;;;4.68;;
23555;SDS011;11956;53.184;8.578;2023-02-18T05:53:27;22.00;;;5.57;;
23555;SDS011;11956;53.184;8.578;2023-02-18T05:56:28;22.40;;;4.80;;
23555;SDS011;11956;53.184;8.578;2023-02-18T05:59:29;17.58;;;4.15;;
23555;SDS011;11956;53.184;8.578;2023-02-18T06:02:30;15.32;;;4.25;;
23555;SDS011;11956;53.184;8.578;2023-02-18T06:05:31;19.83;;;4.63;;
23555;SDS011;11956;53.184;8.578;2023-02-18T06:08:32;20.02;;;5.60;;
23555;SDS011;11956;53.184;8.578;2023-02-18T06:11:33;21.33;;;5.60;;
23555;SDS011;11956;53.184;8.578;2023-02-18T06:14:34;18.15;;;5.38;;
23555;SDS011;11956;53.184;8.578;2023-02-18T06:17:35;18.50;;;6.43;;
23555;SDS011;11956;53.184;8.578;2023-02-18T06:20:37;20.98;;;6.20;;
23555;SDS011;11956;53.184;8.578;2023-02-18T06:23:39;22.92;;;6.40;;
23555;SDS011;11956;53.184;8.578;2023-02-18T06:26:40;26.17;;;8.32;;
23555;SDS011;11956;53.184;8.578;2023-02-18T06:29:41;24.80;;;7.32;;
23555;SDS011;11956;53.184;8.578;2023-02-18T06:32:42;21.27;;;7.25;;
23555;SDS011;11956;53.184;8.578;2023-02-18T06:35:51;24.35;;;7.30;;
23555;SDS011;11956;53.184;8.578;2023-02-18T06:38:57;21.92;;;7.25;;
23555;SDS011;11956;53.184;8.578;2023-02-18T06:41:58;31.80;;;9.60;;
23555;SDS011;11956;53.184;8.578;2023-02-18T06:44:59;20.95;;;8.13;;
23555;SDS011;11956;53.184;8.578;2023-02-18T06:48:00;25.80;;;8.93;;
23555;SDS011;11956;53.184;8.578;2023-02-18T06:51:01;26.00;;;9.48;;
23555;SDS011;11956;53.184;8.578;2023-02-18T06:54:03;31.13;;;10.48;;
23555;SDS011;11956;53.184;8.578;2023-02-18T06:57:05;21.08;;;8.60;;
23555;SDS011;11956;53.184;8.578;2023-02-18T07:00:06;27.38;;;9.52;;
23555;SDS011;11956;53.184;8.578;2023-02-18T07:03:07;30.90;;;10.73;;
23555;SDS011;11956;53.184;8.578;2023-02-18T07:06:11;31.33;;;11.45;;
23555;SDS011;11956;53.184;8.578;2023-02-18T07:09:12;28.40;;;12.40;;
23555;SDS011;11956;53.184;8.578;2023-02-18T07:12:13;31.17;;;12.63;;
23555;SDS011;11956;53.184;8.578;2023-02-18T07:15:14;27.27;;;12.10;;
23555;SDS011;11956;53.184;8.578;2023-02-18T07:18:16;40.72;;;16.02;;
23555;SDS011;11956;53.184;8.578;2023-02-18T07:21:17;39.80;;;17.08;;
23555;SDS011;11956;53.184;8.578;2023-02-18T07:24:18;41.40;;;19.15;;
23555;SDS011;11956;53.184;8.578;2023-02-18T07:27:19;40.60;;;17.30;;
23555;SDS011;11956;53.184;8.578;2023-02-18T07:30:21;32.47;;;16.77;;
23555;SDS011;11956;53.184;8.578;2023-02-18T07:33:22;33.95;;;17.70;;
23555;SDS011;11956;53.184;8.578;2023-02-18T07:36:22;46.90;;;20.67;;
23555;SDS011;11956;53.184;8.578;2023-02-18T07:39:23;64.22;;;23.63;;
23555;SDS011;11956;53.184;8.578;2023-02-18T07:42:24;57.55;;;23.52;;
23555;SDS011;11956;53.184;8.578;2023-02-18T07:45:25;58.33;;;24.52;;
23555;SDS011;11956;53.184;8.578;2023-02-18T07:48:26;48.72;;;23.60;;
23555;SDS011;11956;53.184;8.578;2023-02-18T07:51:27;51.05;;;24.70;;
23555;SDS011;11956;53.184;8.578;2023-02-18T07:54:28;69.72;;;28.90;;
23555;SDS011;11956;53.184;8.578;2023-02-18T07:57:28;63.40;;;27.50;;
23555;SDS011;11956;53.184;8.578;2023-02-18T08:00:30;59.17;;;27.63;;
23555;SDS011;11956;53.184;8.578;2023-02-18T08:03:31;67.22;;;30.10;;
23555;SDS011;11956;53.184;8.578;2023-02-18T08:06:34;74.23;;;31.37;;
23555;SDS011;11956;53.184;8.578;2023-02-18T08:09:40;72.72;;;30.42;;
23555;SDS011;11956;53.184;8.578;2023-02-18T08:12:41;74.60;;;31.98;;
23555;SDS011;11956;53.184;8.578;2023-02-18T08:15:42;79.85;;;33.63;;
23555;SDS011;11956;53.184;8.578;2023-02-18T08:18:43;94.30;;;35.83;;
23555;SDS011;11956;53.184;8.578;2023-02-18T08:21:46;78.88;;;32.42;;
23555;SDS011;11956;53.184;8.578;2023-02-18T08:24:47;84.65;;;30.77;;
23555;SDS011;11956;53.184;8.578;2023-02-18T08:27:48;64.85;;;25.75;;
23555;SDS011;11956;53.184;8.578;2023-02-18T08:30:50;60.95;;;22.27;;
23555;SDS011;11956;53.184;8.578;2023-02-18T08:33:54;53.97;;;19.27;;
23555;SDS011;11956;53.184;8.578;2023-02-18T08:36:57;53.35;;;17.25;;
23555;SDS011;11956;53.184;8.578;2023-02-18T08:39:58;30.20;;;13.48;;
23555;SDS011;11956;53.184;8.578;2023-02-18T08:43:02;28.42;;;12.40;;
23555;SDS011;11956;53.184;8.578;2023-02-18T08:46:03;38.03;;;17.95;;
23555;SDS011;11956;53.184;8.578;2023-02-18T08:49:04;21.88;;;9.52;;
23555;SDS011;11956;53.184;8.578;2023-02-18T08:52:05;34.55;;;12.00;;
23555;SDS011;11956;53.184;8.578;2023-02-18T08:55:06;22.08;;;9.57;;
23555;SDS011;11956;53.184;8.578;2023-02-18T08:58:07;29.77;;;10.15;;
23555;SDS011;11956;53.184;8.578;2023-02-18T09:01:09;20.80;;;8.38;;
23555;SDS011;11956;53.184;8.578;2023-02-18T09:04:12;14.68;;;7.40;;
23555;SDS011;11956;53.184;8.578;2023-02-18T09:07:12;10.48;;;6.15;;
23555;SDS011;11956;53.184;8.578;2023-02-18T09:10:15;14.80;;;6.97;;
23555;SDS011;11956;53.184;8.578;2023-02-18T09:13:16;10.77;;;6.25;;
23555;SDS011;11956;53.184;8.578;2023-02-18T09:16:17;9.10;;;5.35;;
23555;SDS011;11956;53.184;8.578;2023-02-18T09:19:18;9.75;;;5.68;;
23555;SDS011;11956;53.184;8.578;2023-02-18T09:22:19;9.57;;;5.75;;
23555;SDS011;11956;53.184;8.578;2023-02-18T09:25:20;7.00;;;4.57;;
23555;SDS011;11956;53.184;8.578;2023-02-18T09:28:21;7.18;;;4.60;;
23555;SDS011;11956;53.184;8.578;2023-02-18T09:31:24;7.38;;;4.57;;
23555;SDS011;11956;53.184;8.578;2023-02-18T09:34:27;7.85;;;5.13;;
23555;SDS011;11956;53.184;8.578;2023-02-18T09:37:28;7.82;;;4.75;;
23555;SDS011;11956;53.184;8.578;2023-02-18T09:40:30;8.13;;;4.70;;
23555;SDS011;11956;53.184;8.578;2023-02-18T09:43:39;6.53;;;4.78;;
23555;SDS011;11956;53.184;8.578;2023-02-18T09:46:49;6.45;;;4.65;;
23555;SDS011;11956;53.184;8.578;2023-02-18T09:50:22;7.22;;;5.05;;
23555;SDS011;11956;53.184;8.578;2023-02-18T09:53:25;10.18;;;6.50;;
23555;SDS011;11956;53.184;8.578;2023-02-18T09:56:28;9.60;;;6.65;;
23555;SDS011;11956;53.184;8.578;2023-02-18T09:59:34;11.55;;;7.47;;
23555;SDS011;11956;53.184;8.578;2023-02-18T10:02:35;10.77;;;6.38;;
23555;SDS011;11956;53.184;8.578;2023-02-18T10:08:46;13.05;;;8.27;;
23555;SDS011;11956;53.184;8.578;2023-02-18T10:11:51;13.43;;;8.85;;
23555;SDS011;11956;53.184;8.578;2023-02-18T10:14:57;11.68;;;8.15;;
23555;SDS011;11956;53.184;8.578;2023-02-18T10:21:05;13.80;;;9.23;;
23555;SDS011;11956;53.184;8.578;2023-02-18T10:27:36;17.42;;;10.45;;
23555;SDS011;11956;53.184;8.578;2023-02-18T10:30:42;17.75;;;11.57;;
23555;SDS011;11956;53.184;8.578;2023-02-18T10:33:54;17.85;;;11.15;;
23555;SDS011;11956;53.184;8.578;2023-02-18T10:40:55;18.65;;;11.52;;
23555;SDS011;11956;53.184;8.578;2023-02-18T10:44:13;22.42;;;11.10;;
23555;SDS011;11956;53.184;8.578;2023-02-18T10:50:44;11.30;;;7.65;;
23555;SDS011;11956;53.184;8.578;2023-02-18T10:53:45;13.82;;;8.32;;
23555;SDS011;11956;53.184;8.578;2023-02-18T10:56:50;10.27;;;7.18;;
23555;SDS011;11956;53.184;8.578;2023-02-18T11:00:40;12.77;;;7.50;;
23555;SDS011;11956;53.184;8.578;2023-02-18T11:03:38;9.05;;;5.80;;
23555;SDS011;11956;53.184;8.578;2023-02-18T11:06:45;7.93;;;5.18;;
23555;SDS011;11956;53.184;8.578;2023-02-18T11:09:56;6.78;;;4.90;;
23555;SDS011;11956;53.184;8.578;2023-02-18T11:13:02;7.03;;;4.82;;
23555;SDS011;11956;53.184;8.578;2023-02-18T11:16:09;6.88;;;4.72;;
23555;SDS011;11956;53.184;8.578;2023-02-18T11:22:56;7.35;;;3.83;;
23555;SDS011;11956;53.184;8.578;2023-02-18T11:26:00;4.57;;;3.42;;
23555;SDS011;11956;53.184;8.578;2023-02-18T11:32:21;4.88;;;3.22;;
23555;SDS011;11956;53.184;8.578;2023-02-18T11:35:27;4.95;;;3.30;;
23555;SDS011;11956;53.184;8.578;2023-02-18T11:38:34;5.03;;;3.20;;
23555;SDS011;11956;53.184;8.578;2023-02-18T11:41:42;5.70;;;3.20;;
23555;SDS011;11956;53.184;8.578;2023-02-18T11:44:55;7.50;;;3.90;;
23555;SDS011;11956;53.184;8.578;2023-02-18T11:47:59;7.57;;;4.82;;
23555;SDS011;11956;53.184;8.578;2023-02-18T11:51:16;5.55;;;3.15;;
23555;SDS011;11956;53.184;8.578;2023-02-18T11:54:25;6.15;;;3.05;;
23555;SDS011;11956;53.184;8.578;2023-02-18T11:57:31;9.32;;;3.70;;
23555;SDS011;11956;53.184;8.578;2023-02-18T12:00:38;13.60;;;3.60;;
23555;SDS011;11956;53.184;8.578;2023-02-18T12:06:55;10.43;;;3.30;;
23555;SDS011;11956;53.184;8.578;2023-02-18T12:13:46;9.55;;;3.70;;
23555;SDS011;11956;53.184;8.578;2023-02-18T12:34:42;16.38;;;4.90;;
23555;SDS011;11956;53.184;8.578;2023-02-18T12:55:41;16.92;;;4.40;;
23555;SDS011;11956;53.184;8.578;2023-02-18T13:17:17;19.52;;;3.85;;
23555;SDS011;11956;53.184;8.578;2023-02-18T13:20:35;20.77;;;4.00;;
23555;SDS011;11956;53.184;8.578;2023-02-18T13:23:54;20.40;;;3.88;;
23555;SDS011;11956;53.184;8.578;2023-02-18T13:40:26;16.83;;;3.20;;
23555;SDS011;11956;53.184;8.578;2023-02-18T13:46:35;19.20;;;3.30;;
23555;SDS011;11956;53.184;8.578;2023-02-18T13:49:49;14.60;;;2.83;;
23555;SDS011;11956;53.184;8.578;2023-02-18T13:56:08;17.38;;;3.03;;
23555;SDS011;11956;53.184;8.578;2023-02-18T13:59:27;18.52;;;3.67;;
23555;SDS011;11956;53.184;8.578;2023-02-18T14:02:40;17.33;;;3.15;;
23555;SDS011;11956;53.184;8.578;2023-02-18T14:06:00;21.17;;;3.45;;
23555;SDS011;11956;53.184;8.578;2023-02-18T14:12:15;17.35;;;3.08;;
23555;SDS011;11956;53.184;8.578;2023-02-18T14:18:30;15.02;;;3.22;;
23555;SDS011;11956;53.184;8.578;2023-02-18T14:21:53;16.08;;;2.58;;
23555;SDS011;11956;53.184;8.578;2023-02-18T14:25:33;15.68;;;2.03;;
23555;SDS011;11956;53.184;8.578;2023-02-18T14:28:56;16.33;;;2.33;;
23555;SDS011;11956;53.184;8.578;2023-02-18T14:32:20;13.18;;;2.10;;
23555;SDS011;11956;53.184;8.578;2023-02-18T14:35:46;16.00;;;2.20;;
23555;SDS011;11956;53.184;8.578;2023-02-18T14:46:24;14.13;;;2.30;;
23555;SDS011;11956;53.184;8.578;2023-02-18T14:52:50;14.20;;;2.53;;
23555;SDS011;11956;53.184;8.578;2023-02-18T14:56:01;10.50;;;2.47;;
23555;SDS011;11956;53.184;8.578;2023-02-18T14:59:04;15.75;;;2.78;;
23555;SDS011;11956;53.184;8.578;2023-02-18T15:02:25;15.45;;;2.85;;
23555;SDS011;11956;53.184;8.578;2023-02-18T15:05:30;12.18;;;1.90;;
23555;SDS011;11956;53.184;8.578;2023-02-18T15:08:37;13.77;;;2.65;;
23555;SDS011;11956;53.184;8.578;2023-02-18T15:11:43;14.52;;;2.10;;
23555;SDS011;11956;53.184;8.578;2023-02-18T15:14:59;14.57;;;2.17;;
23555;SDS011;11956;53.184;8.578;2023-02-18T15:18:04;10.27;;;1.67;;
23555;SDS011;11956;53.184;8.578;2023-02-18T15:21:23;9.65;;;1.67;;
23555;SDS011;11956;53.184;8.578;2023-02-18T15:24:36;17.23;;;2.55;;
23555;SDS011;11956;53.184;8.578;2023-02-18T15:27:39;11.57;;;2.97;;
23555;SDS011;11956;53.184;8.578;2023-02-18T15:30:46;8.75;;;2.17;;
23555;SDS011;11956;53.184;8.578;2023-02-18T15:33:48;12.93;;;2.67;;
23555;SDS011;11956;53.184;8.578;2023-02-18T15:36:49;10.50;;;2.00;;
23555;SDS011;11956;53.184;8.578;2023-02-18T15:39:52;13.23;;;2.28;;
23555;SDS011;11956;53.184;8.578;2023-02-18T15:42:54;13.70;;;2.85;;
23555;SDS011;11956;53.184;8.578;2023-02-18T15:45:59;11.30;;;2.58;;
23555;SDS011;11956;53.184;8.578;2023-02-18T15:49:00;11.07;;;1.83;;
23555;SDS011;11956;53.184;8.578;2023-02-18T15:52:06;10.35;;;1.73;;
23555;SDS011;11956;53.184;8.578;2023-02-18T15:55:11;10.38;;;2.03;;
23555;SDS011;11956;53.184;8.578;2023-02-18T15:58:20;11.93;;;1.95;;
23555;SDS011;11956;53.184;8.578;2023-02-18T16:01:30;12.82;;;2.30;;
23555;SDS011;11956;53.184;8.578;2023-02-18T16:04:32;9.55;;;2.22;;
23555;SDS011;11956;53.184;8.578;2023-02-18T16:07:49;11.23;;;1.90;;
23555;SDS011;11956;53.184;8.578;2023-02-18T16:14:05;9.20;;;1.92;;
23555;SDS011;11956;53.184;8.578;2023-02-18T16:17:28;9.60;;;1.60;;
23555;SDS011;11956;53.184;8.578;2023-02-18T16:20:31;10.13;;;1.98;;
23555;SDS011;11956;53.184;8.578;2023-02-18T16:23:41;10.55;;;1.98;;
23555;SDS011;11956;53.184;8.578;2023-02-18T16:27:03;12.10;;;2.17;;
23555;SDS011;11956;53.184;8.578;2023-02-18T16:30:16;8.45;;;1.50;;
23555;SDS011;11956;53.184;8.578;2023-02-18T16:33:25;10.55;;;1.98;;
23555;SDS011;11956;53.184;8.578;2023-02-18T16:36:26;10.70;;;1.70;;
23555;SDS011;11956;53.184;8.578;2023-02-18T16:42:44;14.82;;;1.90;;
23555;SDS011;11956;53.184;8.578;2023-02-18T16:45:49;7.63;;;1.50;;
23555;SDS011;11956;53.184;8.578;2023-02-18T16:48:56;7.38;;;1.50;;
23555;SDS011;11956;53.184;8.578;2023-02-18T16:51:59;8.13;;;2.42;;
23555;SDS011;11956;53.184;8.578;2023-02-18T16:55:25;9.73;;;2.00;;
23555;SDS011;11956;53.184;8.578;2023-02-18T16:58:28;9.70;;;1.73;;
23555;SDS011;11956;53.184;8.578;2023-02-18T17:01:29;9.23;;;1.40;;
23555;SDS011;11956;53.184;8.578;2023-02-18T17:04:36;10.75;;;1.83;;
23555;SDS011;11956;53.184;8.578;2023-02-18T17:07:37;8.40;;;1.60;;
23555;SDS011;11956;53.184;8.578;2023-02-18T17:10:38;6.28;;;1.75;;
23555;SDS011;11956;53.184;8.578;2023-02-18T17:13:38;8.75;;;2.05;;
23555;SDS011;11956;53.184;8.578;2023-02-18T17:16:39;11.60;;;2.28;;
23555;SDS011;11956;53.184;8.578;2023-02-18T17:19:40;10.82;;;2.25;;
23555;SDS011;11956;53.184;8.578;2023-02-18T17:22:41;12.05;;;2.40;;
23555;SDS011;11956;53.184;8.578;2023-02-18T17:25:42;8.60;;;1.85;;
23555;SDS011;11956;53.184;8.578;2023-02-18T17:28:44;11.35;;;2.03;;
23555;SDS011;11956;53.184;8.578;2023-02-18T17:31:46;11.35;;;2.40;;
23555;SDS011;11956;53.184;8.578;2023-02-18T17:34:55;10.10;;;1.90;;
23555;SDS011;11956;53.184;8.578;2023-02-18T17:37:56;8.80;;;2.13;;
23555;SDS011;11956;53.184;8.578;2023-02-18T17:40:57;9.13;;;2.88;;
23555;SDS011;11956;53.184;8.578;2023-02-18T17:43:58;11.88;;;2.70;;
23555;SDS011;11956;53.184;8.578;2023-02-18T17:46:59;13.38;;;3.05;;
23555;SDS011;11956;53.184;8.578;2023-02-18T17:50:00;15.00;;;3.47;;
23555;SDS011;11956;53.184;8.578;2023-02-18T17:53:00;10.48;;;3.60;;
23555;SDS011;11956;53.184;8.578;2023-02-18T17:56:01;11.57;;;3.72;;
23555;SDS011;11956;53.184;8.578;2023-02-18T17:59:02;14.45;;;3.47;;
23555;SDS011;11956;53.184;8.578;2023-02-18T18:02:05;13.95;;;3.53;;
23555;SDS011;11956;53.184;8.578;2023-02-18T18:05:27;14.50;;;3.38;;
23555;SDS011;11956;53.184;8.578;2023-02-18T18:08:29;17.65;;;3.38;;
23555;SDS011;11956;53.184;8.578;2023-02-18T18:11:30;12.70;;;2.33;;
23555;SDS011;11956;53.184;8.578;2023-02-18T18:14:31;10.43;;;2.40;;
23555;SDS011;11956;53.184;8.578;2023-02-18T18:17:32;10.98;;;3.10;;
23555;SDS011;11956;53.184;8.578;2023-02-18T18:20:34;20.55;;;2.90;;
23555;SDS011;11956;53.184;8.578;2023-02-18T18:23:35;15.45;;;2.65;;
23555;SDS011;11956;53.184;8.578;2023-02-18T18:26:36;16.80;;;3.00;;
23555;SDS011;11956;53.184;8.578;2023-02-18T18:29:37;16.40;;;2.33;;
23555;SDS011;11956;53.184;8.578;2023-02-18T18:32:37;12.80;;;2.22;;
23555;SDS011;11956;53.184;8.578;2023-02-18T18:35:38;12.98;;;2.33;;
23555;SDS011;11956;53.184;8.578;2023-02-18T18:38:39;15.65;;;2.72;;
23555;SDS011;11956;53.184;8.578;2023-02-18T18:41:40;18.52;;;3.40;;
23555;SDS011;11956;53.184;8.578;2023-02-18T18:44:41;20.85;;;3.55;;
23555;SDS011;11956;53.184;8.578;2023-02-18T18:47:42;16.90;;;3.75;;
23555;SDS011;11956;53.184;8.578;2023-02-18T18:50:43;11.35;;;3.65;;
23555;SDS011;11956;53.184;8.578;2023-02-18T18:53:45;15.50;;;3.25;;
23555;SDS011;11956;53.184;8.578;2023-02-18T18:56:46;16.75;;;2.95;;
23555;SDS011;11956;53.184;8.578;2023-02-18T18:59:49;14.23;;;2.83;;
23555;SDS011;11956;53.184;8.578;2023-02-18T19:02:50;16.25;;;3.35;;
23555;SDS011;11956;53.184;8.578;2023-02-18T19:05:51;10.48;;;2.33;;
23555;SDS011;11956;53.184;8.578;2023-02-18T19:08:52;11.70;;;2.17;;
23555;SDS011;11956;53.184;8.578;2023-02-18T19:11:53;12.85;;;2.65;;
23555;SDS011;11956;53.184;8.578;2023-02-18T19:14:53;13.75;;;2.63;;
23555;SDS011;11956;53.184;8.578;2023-02-18T19:17:54;16.50;;;2.80;;
23555;SDS011;11956;53.184;8.578;2023-02-18T19:20:56;14.13;;;3.13;;
23555;SDS011;11956;53.184;8.578;2023-02-18T19:23:56;13.10;;;2.75;;
23555;SDS011;11956;53.184;8.578;2023-02-18T19:26:58;18.67;;;3.17;;
23555;SDS011;11956;53.184;8.578;2023-02-18T19:29:59;13.32;;;3.10;;
23555;SDS011;11956;53.184;8.578;2023-02-18T19:33:01;18.00;;;4.28;;
23555;SDS011;11956;53.184;8.578;2023-02-18T19:36:05;14.55;;;3.03;;
23555;SDS011;11956;53.184;8.578;2023-02-18T19:39:10;14.50;;;2.95;;
23555;SDS011;11956;53.184;8.578;2023-02-18T19:42:11;9.63;;;2.30;;
23555;SDS011;11956;53.184;8.578;2023-02-18T19:45:12;11.88;;;3.40;;
23555;SDS011;11956;53.184;8.578;2023-02-18T19:48:14;14.63;;;2.50;;
23555;SDS011;11956;53.184;8.578;2023-02-18T19:51:15;11.57;;;3.00;;
23555;SDS011;11956;53.184;8.578;2023-02-18T19:54:16;16.33;;;3.78;;
23555;SDS011;11956;53.184;8.578;2023-02-18T19:57:17;12.65;;;2.78;;
23555;SDS011;11956;53.184;8.578;2023-02-18T20:00:19;13.20;;;3.50;;
23555;SDS011;11956;53.184;8.578;2023-02-18T20:03:21;15.05;;;3.15;;
23555;SDS011;11956;53.184;8.578;2023-02-18T20:06:22;13.82;;;3.70;;
23555;SDS011;11956;53.184;8.578;2023-02-18T20:09:23;11.27;;;3.38;;
23555;SDS011;11956;53.184;8.578;2023-02-18T20:12:24;12.88;;;3.10;;
23555;SDS011;11956;53.184;8.578;2023-02-18T20:15:25;11.20;;;3.70;;
23555;SDS011;11956;53.184;8.578;2023-02-18T20:18:26;13.73;;;3.20;;
23555;SDS011;11956;53.184;8.578;2023-02-18T20:21:27;11.68;;;3.03;;
23555;SDS011;11956;53.184;8.578;2023-02-18T20:24:29;18.02;;;4.80;;
23555;SDS011;11956;53.184;8.578;2023-02-18T20:27:31;11.93;;;4.70;;
23555;SDS011;11956;53.184;8.578;2023-02-18T20:30:33;10.10;;;4.38;;
23555;SDS011;11956;53.184;8.578;2023-02-18T20:33:34;11.82;;;5.53;;
23555;SDS011;11956;53.184;8.578;2023-02-18T20:36:35;10.05;;;5.55;;
23555;SDS011;11956;53.184;8.578;2023-02-18T20:39:36;12.65;;;6.95;;
23555;SDS011;11956;53.184;8.578;2023-02-18T20:42:36;10.63;;;5.88;;
23555;SDS011;11956;53.184;8.578;2023-02-18T20:45:37;11.63;;;5.80;;
23555;SDS011;11956;53.184;8.578;2023-02-18T20:48:38;9.77;;;5.85;;
23555;SDS011;11956;53.184;8.578;2023-02-18T20:51:39;10.48;;;6.07;;
23555;SDS011;11956;53.184;8.578;2023-02-18T20:54:40;8.48;;;5.90;;
23555;SDS011;11956;53.184;8.578;2023-02-18T20:57:42;7.18;;;5.63;;
23555;SDS011;11956;53.184;8.578;2023-02-18T21:00:42;8.85;;;5.88;;
23555;SDS011;11956;53.184;8.578;2023-02-18T21:03:44;10.50;;;6.03;;
23555;SDS011;11956;53.184;8.578;2023-02-18T21:06:46;10.93;;;6.78;;
23555;SDS011;11956;53.184;8.578;2023-02-18T21:09:49;9.95;;;6.85;;
23555;SDS011;11956;53.184;8.578;2023-02-18T21:12:49;10.60;;;6.35;;
23555;SDS011;11956;53.184;8.578;2023-02-18T21:15:50;9.75;;;6.85;;
23555;SDS011;11956;53.184;8.578;2023-02-18T21:18:51;9.80;;;6.95;;